createdAt,value
2022-09-17T00:00:27.397Z,1.63
2022-09-17T00:02:30.470Z,2.10
2022-09-17T00:04:32.964Z,1.33
2022-09-17T00:06:36.039Z,1.60
2022-09-17T00:08:40.868Z,2.10
2022-09-17T00:10:44.911Z,1.47
2022-09-17T00:12:47.821Z,1.80
2022-09-17T00:14:50.063Z,1.70
2022-09-17T00:16:54.457Z,1.97
2022-09-17T00:18:57.517Z,1.50
2022-09-17T00:20:59.798Z,1.40
2022-09-17T00:23:02.034Z,1.83
2022-09-17T00:25:06.225Z,1.80
2022-09-17T00:27:08.466Z,1.77
2022-09-17T00:29:11.065Z,1.70
2022-09-17T00:31:13.404Z,1.63
2022-09-17T00:33:17.828Z,2.13
2022-09-17T00:35:20.100Z,1.67
2022-09-17T00:37:23.069Z,1.50
2022-09-17T00:39:25.334Z,1.77
2022-09-17T00:41:31.065Z,1.80
2022-09-17T00:43:51.087Z,2.20
2022-09-17T00:45:54.065Z,1.90
2022-09-17T00:48:02.028Z,1.93
2022-09-17T00:50:34.748Z,1.90
2022-09-17T00:52:43.440Z,1.93
2022-09-17T00:54:54.094Z,1.97
2022-09-17T00:56:57.651Z,2.10
2022-09-17T00:59:01.743Z,1.70
2022-09-17T01:01:04.606Z,1.70
2022-09-17T01:03:06.988Z,2.10
2022-09-17T01:05:10.769Z,2.30
2022-09-17T01:07:35.755Z,2.10
2022-09-17T01:09:38.050Z,2.10
2022-09-17T01:12:04.512Z,1.80
2022-09-17T01:14:38.380Z,2.03
2022-09-17T01:17:01.463Z,2.00
2022-09-17T01:19:24.034Z,2.20
2022-09-17T01:21:33.694Z,1.73
2022-09-17T01:23:59.632Z,2.07
2022-09-17T01:26:37.280Z,1.92
2022-09-17T01:29:05.394Z,2.27
2022-09-17T01:31:36.025Z,2.20
2022-09-17T01:34:22.158Z,1.90
2022-09-17T01:36:43.345Z,2.17
2022-09-17T01:39:14.797Z,2.23
2022-09-17T01:41:25.572Z,2.23
2022-09-17T01:43:38.164Z,2.70
2022-09-17T01:45:58.973Z,2.37
2022-09-17T01:49:00.068Z,2.17
2022-09-17T01:51:06.600Z,2.10
2022-09-17T01:53:10.577Z,2.50
2022-09-17T01:55:16.202Z,1.90
2022-09-17T01:57:36.823Z,2.00
2022-09-17T01:59:55.287Z,2.30
2022-09-17T02:02:15.302Z,2.60
2022-09-17T02:04:28.427Z,2.50
2022-09-17T02:06:36.126Z,2.40
2022-09-17T02:08:54.998Z,2.20
2022-09-17T02:11:15.334Z,2.33
2022-09-17T02:13:36.527Z,2.20
2022-09-17T02:15:43.792Z,2.83
2022-09-17T02:17:53.210Z,1.97
2022-09-17T02:20:00.906Z,2.60
2022-09-17T02:22:16.115Z,2.47
2022-09-17T02:24:32.248Z,1.90
2022-09-17T02:26:38.149Z,1.90
2022-09-17T02:28:51.384Z,2.20
2022-09-17T02:30:54.636Z,2.00
2022-09-17T02:32:56.937Z,2.07
2022-09-17T02:34:59.213Z,2.40
2022-09-17T02:37:01.797Z,2.10
2022-09-17T02:39:05.003Z,2.63
2022-09-17T02:41:16.913Z,2.17
2022-09-17T02:43:48.701Z,2.27
2022-09-17T02:46:14.457Z,1.90
2022-09-17T02:48:53.849Z,2.50
2022-09-17T02:51:23.661Z,2.23
2022-09-17T02:53:47.327Z,1.90
2022-09-17T02:56:07.178Z,2.03
2022-09-17T02:58:32.637Z,2.47
2022-09-17T03:00:36.076Z,2.30
2022-09-17T03:02:50.355Z,2.10
2022-09-17T03:04:54.712Z,2.10
2022-09-17T03:06:59.613Z,2.23
2022-09-17T03:09:02.005Z,1.90
2022-09-17T03:11:12.889Z,2.40
2022-09-17T03:13:16.210Z,1.67
2022-09-17T03:15:18.479Z,2.33
2022-09-17T03:17:21.200Z,2.10
2022-09-17T03:19:23.840Z,1.70
2022-09-17T03:21:26.368Z,2.30
2022-09-17T03:23:28.694Z,1.43
2022-09-17T03:25:30.948Z,2.00
2022-09-17T03:27:33.681Z,1.93
2022-09-17T03:29:35.957Z,3.93
2022-09-17T03:31:38.221Z,1.70
2022-09-17T03:33:40.465Z,1.77
2022-09-17T03:35:44.491Z,1.90
2022-09-17T03:37:47.530Z,1.63
2022-09-17T03:39:49.855Z,1.70
2022-09-17T03:41:52.175Z,2.13
2022-09-17T03:43:54.597Z,1.87
2022-09-17T03:45:56.900Z,1.50
2022-09-17T03:47:59.356Z,1.90
2022-09-17T03:50:01.650Z,1.83
2022-09-17T03:52:04.023Z,1.60
2022-09-17T03:54:06.721Z,1.70
2022-09-17T03:56:09.317Z,1.80
2022-09-17T03:58:11.976Z,1.63
2022-09-17T04:00:17.434Z,1.97
2022-09-17T04:02:21.191Z,2.30
2022-09-17T04:04:24.174Z,2.10
2022-09-17T04:06:26.531Z,2.03
2022-09-17T04:08:28.900Z,1.83
2022-09-17T04:10:31.160Z,1.53
2022-09-17T04:12:36.507Z,1.50
2022-09-17T04:14:38.728Z,1.63
2022-09-17T04:16:41.133Z,2.33
2022-09-17T04:18:43.484Z,2.13
2022-09-17T04:20:45.768Z,1.70
2022-09-17T04:22:48.018Z,1.87
2022-09-17T04:24:50.274Z,2.03
2022-09-17T04:26:52.502Z,1.77
2022-09-17T04:28:54.767Z,1.87
2022-09-17T04:30:57.762Z,1.80
2022-09-17T04:33:00.199Z,1.87
2022-09-17T04:35:02.475Z,1.87
2022-09-17T04:38:09.576Z,1.90
2022-09-17T04:40:11.859Z,1.90
2022-09-17T04:42:15.429Z,1.80
2022-09-17T04:44:18.446Z,1.93
2022-09-17T04:46:20.743Z,2.17
2022-09-17T04:48:23.117Z,1.80
2022-09-17T04:50:25.415Z,2.13
2022-09-17T04:52:30.879Z,1.90
2022-09-17T04:54:33.503Z,1.57
2022-09-17T04:56:35.794Z,1.77
2022-09-17T04:58:38.130Z,2.20
2022-09-17T05:00:42.071Z,1.77
2022-09-17T05:02:50.602Z,1.67
2022-09-17T05:04:53.091Z,2.20
2022-09-17T05:06:55.364Z,1.30
2022-09-17T05:08:57.663Z,1.70
2022-09-17T05:10:59.955Z,1.80
2022-09-17T05:13:02.273Z,1.63
2022-09-17T05:15:05.583Z,1.90
2022-09-17T05:17:07.952Z,1.90
2022-09-17T05:19:10.220Z,2.00
2022-09-17T05:21:12.611Z,2.13
2022-09-17T05:23:25.575Z,2.10
2022-09-17T05:25:27.930Z,2.40
2022-09-17T05:27:30.206Z,2.37
2022-09-17T05:29:33.103Z,2.60
2022-09-17T05:31:35.442Z,2.50
2022-09-17T05:33:37.726Z,1.90
2022-09-17T05:35:40.749Z,2.20
2022-09-17T05:37:43.064Z,2.28
2022-09-17T05:39:45.345Z,2.37
2022-09-17T05:41:47.549Z,1.77
2022-09-17T05:43:49.838Z,2.20
2022-09-17T05:45:54.337Z,2.47
2022-09-17T05:47:57.746Z,2.13
2022-09-17T05:50:00.749Z,1.97
2022-09-17T05:52:03.856Z,3.23
2022-09-17T05:54:06.417Z,2.27
2022-09-17T05:56:08.666Z,2.07
2022-09-17T05:58:20.065Z,3.20
2022-09-17T06:00:22.594Z,2.80
2022-09-17T06:02:24.890Z,2.63
2022-09-17T06:04:29.568Z,2.80
2022-09-17T06:06:33.883Z,2.80
2022-09-17T06:08:36.925Z,2.17
2022-09-17T06:10:39.995Z,2.40
2022-09-17T06:12:42.226Z,2.30
2022-09-17T06:14:44.438Z,1.50
2022-09-17T06:16:51.068Z,3.00
2022-09-17T06:18:53.611Z,1.97
2022-09-17T06:20:57.813Z,3.10
2022-09-17T06:23:00.124Z,2.77
2022-09-17T06:25:04.121Z,2.43
2022-09-17T06:27:06.390Z,2.67
2022-09-17T06:29:08.631Z,2.33
2022-09-17T06:31:12.823Z,2.30
2022-09-17T06:33:15.617Z,2.10
2022-09-17T06:35:20.523Z,2.20
2022-09-17T06:37:31.689Z,2.90
2022-09-17T06:39:34.399Z,2.63
2022-09-17T06:41:37.361Z,1.73
2022-09-17T06:43:39.617Z,2.53
2022-09-17T06:45:42.486Z,1.88
2022-09-17T06:47:44.787Z,2.30
2022-09-17T06:49:47.031Z,1.93
2022-09-17T06:51:49.287Z,1.90
2022-09-17T06:53:51.542Z,1.87
2022-09-17T06:55:58.363Z,1.87
2022-09-17T06:58:02.612Z,2.20
2022-09-17T07:00:05.189Z,3.00
2022-09-17T07:02:09.978Z,1.77
2022-09-17T07:04:12.525Z,2.23
2022-09-17T07:06:14.919Z,2.80
2022-09-17T07:08:42.659Z,2.10
2022-09-17T07:10:45.079Z,1.97
2022-09-17T07:12:49.923Z,3.07
2022-09-17T07:14:52.813Z,2.20
2022-09-17T07:16:55.060Z,2.60
2022-09-17T07:18:57.265Z,2.70
2022-09-17T07:21:01.356Z,2.30
2022-09-17T07:23:03.658Z,2.40
2022-09-17T07:25:07.692Z,2.70
2022-09-17T07:27:23.188Z,2.88
2022-09-17T07:29:28.851Z,2.50
2022-09-17T07:31:31.467Z,2.83
2022-09-17T07:33:35.383Z,2.70
2022-09-17T07:35:37.577Z,2.30
2022-09-17T07:37:40.100Z,2.23
2022-09-17T07:39:42.836Z,2.97
2022-09-17T07:41:45.146Z,1.93
2022-09-17T07:43:47.561Z,2.60
2022-09-17T07:45:49.835Z,1.97
2022-09-17T07:47:52.054Z,2.40
2022-09-17T07:49:54.301Z,2.55
2022-09-17T07:51:56.919Z,2.20
2022-09-17T07:53:59.677Z,2.67
2022-09-17T07:56:18.261Z,2.53
2022-09-17T07:58:24.433Z,2.50
2022-09-17T08:00:26.689Z,2.47
2022-09-17T08:02:29.606Z,3.70
2022-09-17T08:04:32.451Z,2.17
2022-09-17T08:06:37.949Z,2.27
2022-09-17T08:08:41.044Z,2.60
2022-09-17T08:10:43.275Z,2.37
2022-09-17T08:12:45.497Z,2.33
2022-09-17T08:14:47.803Z,2.43
2022-09-17T08:16:50.070Z,2.43
2022-09-17T08:19:00.088Z,1.63
2022-09-17T08:21:04.854Z,1.83
2022-09-17T08:23:07.110Z,1.60
2022-09-17T08:25:18.587Z,2.50
2022-09-17T08:27:23.430Z,1.60
2022-09-17T08:29:25.769Z,2.40
2022-09-17T08:31:33.348Z,2.80
2022-09-17T08:33:38.221Z,2.87
2022-09-17T08:35:40.874Z,2.00
2022-09-17T08:37:43.641Z,1.70
2022-09-17T08:40:37.366Z,1.70
2022-09-17T08:42:50.078Z,2.00
2022-09-17T08:44:55.214Z,2.90
2022-09-17T08:47:11.359Z,2.07
2022-09-17T08:49:34.040Z,2.10
2022-09-17T08:51:49.139Z,2.80
2022-09-17T08:54:03.369Z,2.13
2022-09-17T08:56:16.118Z,1.83
2022-09-17T08:58:39.915Z,1.90
2022-09-17T09:00:50.732Z,2.20
2022-09-17T09:03:14.301Z,2.20
2022-09-17T09:05:23.735Z,2.20
2022-09-17T09:07:36.613Z,1.90
2022-09-17T09:09:45.412Z,2.40
2022-09-17T09:11:49.483Z,3.10
2022-09-17T09:13:58.164Z,1.53
2022-09-17T09:16:05.734Z,2.63
2022-09-17T09:18:27.167Z,2.03
2022-09-17T09:20:48.549Z,2.70
2022-09-17T09:22:52.725Z,1.48
2022-09-17T09:25:34.101Z,1.83
2022-09-17T09:27:46.025Z,1.67
2022-09-17T09:29:57.532Z,1.80
2022-09-17T09:32:21.147Z,3.10
2022-09-17T09:34:27.371Z,1.80
2022-09-17T09:36:32.427Z,1.97
2022-09-17T09:38:51.648Z,2.40
2022-09-17T09:40:56.949Z,1.90
2022-09-17T09:43:04.008Z,1.80
2022-09-17T09:45:23.492Z,1.70
2022-09-17T09:47:39.213Z,1.90
2022-09-17T09:50:06.598Z,1.90
2022-09-17T09:52:23.668Z,1.40
2022-09-17T09:54:37.506Z,1.73
2022-09-17T09:57:08.795Z,1.50
2022-09-17T09:59:13.931Z,1.40
2022-09-17T10:01:33.323Z,1.17
2022-09-17T10:03:40.462Z,1.43
2022-09-17T10:05:54.695Z,1.20
2022-09-17T10:07:57.547Z,1.57
2022-09-17T10:10:10.513Z,1.27
2022-09-17T10:12:12.733Z,1.57
2022-09-17T10:14:24.528Z,1.00
2022-09-17T10:16:30.566Z,1.10
2022-09-17T10:18:32.879Z,1.47
2022-09-17T10:20:35.145Z,1.40
2022-09-17T10:22:50.971Z,1.33
2022-09-17T10:24:55.445Z,1.67
2022-09-17T10:27:02.764Z,1.17
2022-09-17T10:29:20.558Z,1.40
2022-09-17T10:31:23.309Z,1.70
2022-09-17T10:33:33.855Z,1.27
2022-09-17T10:35:58.850Z,1.60
2022-09-17T10:38:01.178Z,1.20
2022-09-17T10:40:23.345Z,1.53
2022-09-17T10:42:42.637Z,1.07
2022-09-17T10:44:55.428Z,1.43
2022-09-17T10:47:13.684Z,1.50
2022-09-17T10:49:36.874Z,1.50
2022-09-17T10:51:39.451Z,1.47
2022-09-17T10:54:07.538Z,2.03
2022-09-17T10:56:29.439Z,1.60
2022-09-17T10:58:44.259Z,1.70
2022-09-17T11:01:12.181Z,1.30
2022-09-17T11:03:37.761Z,2.00
2022-09-17T11:05:58.045Z,1.80
2022-09-17T11:08:29.128Z,1.73
2022-09-17T11:10:45.702Z,1.80
2022-09-17T11:12:47.917Z,1.60
2022-09-17T11:15:01.243Z,1.57
2022-09-17T11:17:23.780Z,1.87
2022-09-17T11:19:45.546Z,1.50
2022-09-17T11:22:21.233Z,1.30
2022-09-17T11:24:57.394Z,1.50
2022-09-17T11:27:23.163Z,1.90
2022-09-17T11:30:02.731Z,1.50
2022-09-17T11:32:24.597Z,1.60
2022-09-17T11:34:35.076Z,2.20
2022-09-17T11:36:51.448Z,2.00
2022-09-17T11:38:58.000Z,1.37
2022-09-17T11:41:02.969Z,1.13
2022-09-17T11:43:44.007Z,1.30
2022-09-17T11:46:14.986Z,1.70
2022-09-17T11:48:25.775Z,1.63
2022-09-17T11:50:33.163Z,1.10
2022-09-17T11:52:43.785Z,0.93
2022-09-17T11:55:21.526Z,1.20
2022-09-17T11:57:37.548Z,1.33
2022-09-17T12:00:06.066Z,1.30
2022-09-17T12:02:27.130Z,1.47
2022-09-17T12:04:38.334Z,1.80
2022-09-17T12:06:49.248Z,1.63
2022-09-17T12:09:06.263Z,1.20
2022-09-17T12:11:44.658Z,1.10
2022-09-17T12:14:06.342Z,1.10
2022-09-17T12:16:14.405Z,1.47
2022-09-17T12:18:45.571Z,1.40
2022-09-17T12:20:51.946Z,0.90
2022-09-17T12:22:55.655Z,1.10
2022-09-17T12:25:21.876Z,1.00
2022-09-17T12:27:59.718Z,1.10
2022-09-17T12:30:22.631Z,1.63
2022-09-17T12:33:03.358Z,1.43
2022-09-17T12:35:59.730Z,1.63
2022-09-17T12:38:24.192Z,2.00
2022-09-17T12:40:43.935Z,2.00
2022-09-17T12:42:57.286Z,1.57
2022-09-17T12:45:41.953Z,1.10
2022-09-17T12:48:21.438Z,1.20
2022-09-17T12:50:32.663Z,1.23
2022-09-17T12:52:43.597Z,1.07
2022-09-17T12:55:17.324Z,1.13
2022-09-17T12:57:36.005Z,1.30
2022-09-17T12:59:49.774Z,1.47
2022-09-17T13:02:26.718Z,0.87
2022-09-17T13:05:12.794Z,1.77
2022-09-17T13:07:32.418Z,1.23
2022-09-17T13:09:40.172Z,1.13
2022-09-17T13:11:48.070Z,1.43
2022-09-17T13:13:53.401Z,1.60
2022-09-17T13:16:13.309Z,1.47
2022-09-17T13:18:29.742Z,1.40
2022-09-17T13:20:53.753Z,1.20
2022-09-17T13:22:57.833Z,1.40
2022-09-17T13:25:09.263Z,1.20
2022-09-17T13:27:26.230Z,1.70
2022-09-17T13:29:46.473Z,1.33
2022-09-17T13:31:50.117Z,1.30
2022-09-17T13:34:00.632Z,2.53
2022-09-17T13:36:04.743Z,1.77
2022-09-17T13:38:06.994Z,1.43
2022-09-17T13:40:27.095Z,1.27
2022-09-17T13:42:44.953Z,1.50
2022-09-17T13:45:01.928Z,1.40
2022-09-17T13:47:22.273Z,1.50
2022-09-17T13:49:25.313Z,1.20
2022-09-17T13:51:30.457Z,1.80
2022-09-17T13:53:32.954Z,1.87
2022-09-17T13:55:44.074Z,1.30
2022-09-17T13:57:50.400Z,2.20
2022-09-17T13:59:55.402Z,1.77
2022-09-17T14:02:17.602Z,1.25
2022-09-17T14:04:42.221Z,1.50
2022-09-17T14:06:51.522Z,1.50
2022-09-17T14:08:57.978Z,2.30
2022-09-17T14:11:02.569Z,1.70
2022-09-17T14:13:27.486Z,1.20
2022-09-17T14:15:41.469Z,1.17
2022-09-17T14:17:52.121Z,1.77
2022-09-17T14:19:55.567Z,2.87
2022-09-17T14:22:06.088Z,2.23
2022-09-17T14:24:23.047Z,2.70
2022-09-17T14:26:47.774Z,1.50
2022-09-17T14:29:03.522Z,1.13
2022-09-17T14:31:17.860Z,1.40
2022-09-17T14:33:27.214Z,1.07
2022-09-17T14:35:33.698Z,1.77
2022-09-17T14:37:36.290Z,1.40
2022-09-17T14:39:40.360Z,1.10
2022-09-17T14:41:44.611Z,1.20
2022-09-17T14:44:01.308Z,1.07
2022-09-17T14:46:06.257Z,1.30
2022-09-17T14:48:27.614Z,3.30
2022-09-17T14:50:38.298Z,1.70
2022-09-17T14:52:40.518Z,0.83
2022-09-17T14:54:44.717Z,0.80
2022-09-17T14:56:57.077Z,0.90
2022-09-17T14:58:59.795Z,0.87
2022-09-17T15:01:02.416Z,0.70
2022-09-17T15:03:05.250Z,0.80
2022-09-17T15:05:24.160Z,0.50
2022-09-17T15:07:27.206Z,0.77
2022-09-17T15:09:29.673Z,1.20
2022-09-17T15:11:36.703Z,0.60
2022-09-17T15:13:47.856Z,0.60
2022-09-17T15:16:01.126Z,0.73
2022-09-17T15:18:05.015Z,0.60
2022-09-17T15:20:09.461Z,0.70
2022-09-17T15:22:27.263Z,0.50
2022-09-17T15:24:36.208Z,0.70
2022-09-17T15:26:42.187Z,1.10
2022-09-17T15:28:46.065Z,0.80
2022-09-17T15:30:53.420Z,0.67
2022-09-17T15:32:58.073Z,0.80
2022-09-17T15:35:15.828Z,1.00
2022-09-17T15:37:20.654Z,0.70
2022-09-17T15:39:42.710Z,0.80
2022-09-17T15:41:55.919Z,0.70
2022-09-17T15:44:29.749Z,0.90
2022-09-17T15:46:33.247Z,0.77
2022-09-17T15:48:38.482Z,0.80
2022-09-17T15:50:53.379Z,1.00
2022-09-17T15:53:21.197Z,0.77
2022-09-17T15:55:35.695Z,0.90
2022-09-17T15:57:37.988Z,0.80
2022-09-17T16:00:13.447Z,0.87
2022-09-17T16:02:27.963Z,0.90
2022-09-17T16:04:34.399Z,1.07
2022-09-17T16:06:37.797Z,1.05
2022-09-17T16:08:40.033Z,0.70
2022-09-17T16:10:44.265Z,1.30
2022-09-17T16:12:56.621Z,0.60
2022-09-17T16:15:50.897Z,0.50
2022-09-17T16:17:53.178Z,0.68
2022-09-17T16:19:56.400Z,0.70
2022-09-17T16:21:58.604Z,0.57
2022-09-17T16:24:19.258Z,0.93
2022-09-17T16:26:29.139Z,0.70
2022-09-17T16:28:32.083Z,0.70
2022-09-17T16:30:34.462Z,0.60
2022-09-17T16:32:36.846Z,0.90
2022-09-17T16:34:39.086Z,1.77
2022-09-17T16:36:41.344Z,0.90
2022-09-17T16:38:43.605Z,0.60
2022-09-17T16:40:49.730Z,0.80
2022-09-17T16:42:52.011Z,0.70
2022-09-17T16:44:54.193Z,0.60
2022-09-17T16:46:56.526Z,1.07
2022-09-17T16:49:00.511Z,0.70
2022-09-17T16:51:09.856Z,0.60
2022-09-17T16:53:12.857Z,0.80
2022-09-17T16:55:17.851Z,0.77
2022-09-17T16:57:20.868Z,0.90
2022-09-17T16:59:23.889Z,0.53
2022-09-17T17:01:27.911Z,0.73
2022-09-17T17:03:30.848Z,0.90
2022-09-17T17:05:37.043Z,0.80
2022-09-17T17:07:39.351Z,0.67
2022-09-17T17:09:41.695Z,0.70
2022-09-17T17:11:43.965Z,0.67
2022-09-17T17:13:46.287Z,0.67
2022-09-17T17:15:48.580Z,0.80
2022-09-17T17:17:51.122Z,0.90
2022-09-17T17:19:54.545Z,1.03
2022-09-17T17:21:57.317Z,0.87
2022-09-17T17:23:59.567Z,0.53
2022-09-17T17:26:02.599Z,0.90
2022-09-17T17:28:33.429Z,0.80
2022-09-17T17:30:36.133Z,0.70
2022-09-17T17:32:38.419Z,0.60
2022-09-17T17:34:41.161Z,0.60
2022-09-17T17:36:43.393Z,0.60
2022-09-17T17:38:45.666Z,0.80
2022-09-17T17:40:47.941Z,0.70
2022-09-17T17:42:53.701Z,0.70
2022-09-17T17:44:55.955Z,0.90
2022-09-17T17:46:58.282Z,0.60
2022-09-17T17:49:00.624Z,0.83
2022-09-17T17:51:07.981Z,0.77
2022-09-17T17:53:10.239Z,0.93
2022-09-17T17:55:12.542Z,0.90
2022-09-17T17:57:14.785Z,16.83
2022-09-17T17:59:17.015Z,26.30
2022-09-17T18:01:21.919Z,18.03
2022-09-17T18:03:27.137Z,15.38
2022-09-17T18:05:29.398Z,24.03
2022-09-17T18:07:31.742Z,20.23
2022-09-17T18:09:34.037Z,13.50
2022-09-17T18:11:54.729Z,16.37
2022-09-17T18:13:58.351Z,15.63
2022-09-17T18:16:01.951Z,18.27
2022-09-17T18:18:06.377Z,12.55
2022-09-17T18:20:09.897Z,14.20
2022-09-17T18:22:12.175Z,16.60
2022-09-17T18:24:22.338Z,12.88
2022-09-17T18:26:26.928Z,12.43
2022-09-17T18:28:30.924Z,12.57
2022-09-17T18:30:37.539Z,16.00
2022-09-17T18:32:39.875Z,23.63
2022-09-17T18:34:42.126Z,22.50
2022-09-17T18:36:50.824Z,30.53
2022-09-17T18:38:55.293Z,37.75
2022-09-17T18:41:04.180Z,21.50
2022-09-17T18:43:07.574Z,20.27
2022-09-17T18:45:10.870Z,19.57
2022-09-17T18:47:13.116Z,21.37
2022-09-17T18:49:15.984Z,22.37
2022-09-17T18:51:18.270Z,26.02
2022-09-17T18:53:50.807Z,28.83
2022-09-17T18:55:55.667Z,24.43
2022-09-17T18:57:57.916Z,19.60
2022-09-17T19:00:00.197Z,22.50
2022-09-17T19:02:02.617Z,21.80
2022-09-17T19:04:07.630Z,22.65
2022-09-17T19:06:37.112Z,26.87
2022-09-17T19:08:39.529Z,30.70
2022-09-17T19:10:41.715Z,34.00
2022-09-17T19:12:44.045Z,27.90
2022-09-17T19:14:46.365Z,22.40
2022-09-17T19:16:49.073Z,18.63
2022-09-17T19:18:51.532Z,17.50
2022-09-17T19:21:00.367Z,25.13
2022-09-17T19:23:03.275Z,21.30
2022-09-17T19:25:06.226Z,15.93
2022-09-17T19:27:08.435Z,16.90
2022-09-17T19:29:11.654Z,17.00
2022-09-17T19:31:16.175Z,14.57
2022-09-17T19:33:19.989Z,11.17
2022-09-17T19:35:22.269Z,10.43
2022-09-17T19:37:24.984Z,8.80
2022-09-17T19:39:27.266Z,9.70
2022-09-17T19:41:32.066Z,8.30
2022-09-17T19:43:34.376Z,7.90
2022-09-17T19:45:37.953Z,7.03
2022-09-17T19:47:40.163Z,6.90
2022-09-17T19:49:43.747Z,5.40
2022-09-17T19:51:45.993Z,5.67
2022-09-17T19:53:48.331Z,4.20
2022-09-17T19:55:50.738Z,3.03
2022-09-17T19:57:53.008Z,3.60
2022-09-17T19:59:55.284Z,5.10
2022-09-17T20:01:57.580Z,5.40
2022-09-17T20:03:59.884Z,6.07
2022-09-17T20:06:06.491Z,6.13
2022-09-17T20:08:08.779Z,6.15
2022-09-17T20:10:11.039Z,7.50
2022-09-17T20:12:13.305Z,7.90
2022-09-17T20:14:15.881Z,7.00
2022-09-17T20:16:20.836Z,7.60
2022-09-17T20:18:23.768Z,7.60
2022-09-17T20:20:28.713Z,7.00
2022-09-17T20:22:31.214Z,7.50
2022-09-17T20:24:58.380Z,8.48
2022-09-17T20:27:00.635Z,6.77
2022-09-17T20:29:03.200Z,7.27
2022-09-17T20:31:11.812Z,5.53
2022-09-17T20:33:14.327Z,4.47
2022-09-17T20:35:16.673Z,4.37
2022-09-17T20:37:44.437Z,5.20
2022-09-17T20:39:43.255Z,4.27
2022-09-17T20:41:45.631Z,4.23
2022-09-17T20:43:52.685Z,4.50
2022-09-17T20:45:55.851Z,3.63
2022-09-17T20:47:58.256Z,3.43
2022-09-17T20:50:00.533Z,3.30
2022-09-17T20:52:03.938Z,3.03
2022-09-17T20:54:06.407Z,2.40
2022-09-17T20:56:15.714Z,2.40
2022-09-17T20:58:20.193Z,2.53
2022-09-17T21:00:26.346Z,2.30
2022-09-17T21:02:28.731Z,2.00
2022-09-17T21:04:31.044Z,2.13
2022-09-17T21:06:36.015Z,2.67
2022-09-17T21:08:38.449Z,2.30
2022-09-17T21:10:44.335Z,2.40
2022-09-17T21:12:46.652Z,2.93
2022-09-17T21:14:48.876Z,2.30
2022-09-17T21:17:42.520Z,2.47
2022-09-17T21:19:44.777Z,2.13
2022-09-17T21:21:47.994Z,3.93
2022-09-17T21:23:50.886Z,2.60
2022-09-17T21:26:13.289Z,2.27
2022-09-17T21:28:20.328Z,2.20
2022-09-17T21:30:24.064Z,2.40
2022-09-17T21:32:27.173Z,2.57
2022-09-17T21:34:29.419Z,2.07
2022-09-17T21:36:34.719Z,3.00
2022-09-17T21:38:37.677Z,2.07
2022-09-17T21:40:43.206Z,2.17
2022-09-17T21:42:46.239Z,2.28
2022-09-17T21:44:48.483Z,2.63
2022-09-17T21:46:56.896Z,2.70
2022-09-17T21:49:02.179Z,2.40
2022-09-17T21:51:11.422Z,2.70
2022-09-17T21:53:13.693Z,2.40
2022-09-17T21:55:16.015Z,2.17
2022-09-17T21:57:19.088Z,2.17
2022-09-17T21:59:21.309Z,2.20
2022-09-17T22:01:27.105Z,2.50
2022-09-17T22:03:29.544Z,2.63
2022-09-17T22:05:33.328Z,2.93
2022-09-17T22:07:35.830Z,1.80
2022-09-17T22:09:39.286Z,1.83
2022-09-17T22:11:47.913Z,2.37
2022-09-17T22:14:00.705Z,2.50
2022-09-17T22:16:05.090Z,2.00
2022-09-17T22:18:12.722Z,2.27
2022-09-17T22:20:15.386Z,1.93
2022-09-17T22:22:17.625Z,2.30
2022-09-17T22:24:22.116Z,2.20
2022-09-17T22:26:27.892Z,4.37
2022-09-17T22:28:31.131Z,2.10
2022-09-17T22:30:35.854Z,2.00
2022-09-17T22:32:38.102Z,2.27
2022-09-17T22:34:40.355Z,2.20
2022-09-17T22:36:42.753Z,1.87
2022-09-17T22:38:50.612Z,2.80
2022-09-17T22:40:54.631Z,2.10
2022-09-17T22:42:56.876Z,1.90
2022-09-17T22:44:59.128Z,1.90
2022-09-17T22:47:01.442Z,2.00
2022-09-17T22:49:03.730Z,1.87
2022-09-17T22:51:06.186Z,2.20
2022-09-17T22:53:08.458Z,1.83
2022-09-17T22:55:10.699Z,1.90
2022-09-17T22:57:12.964Z,1.50
2022-09-17T22:59:15.370Z,2.20
2022-09-17T23:01:20.234Z,1.87
2022-09-17T23:03:31.341Z,1.70
2022-09-17T23:05:33.566Z,2.03
2022-09-17T23:07:37.922Z,2.20
2022-09-17T23:09:40.172Z,1.98
2022-09-17T23:11:42.618Z,2.20
2022-09-17T23:13:44.937Z,2.00
2022-09-17T23:15:48.720Z,2.40
2022-09-17T23:17:51.021Z,2.70
2022-09-17T23:19:53.260Z,1.93
2022-09-17T23:21:55.516Z,2.10
2022-09-17T23:24:52.011Z,2.37
2022-09-17T23:26:54.295Z,1.88
2022-09-17T23:29:00.029Z,1.70
2022-09-17T23:31:17.158Z,1.70
2022-09-17T23:33:19.489Z,1.50
2022-09-17T23:35:22.901Z,1.80
2022-09-17T23:37:25.299Z,1.48
2022-09-17T23:39:27.628Z,1.50
2022-09-17T23:41:43.408Z,1.60
2022-09-17T23:43:51.297Z,1.40
2022-09-17T23:45:56.944Z,1.60
2022-09-17T23:47:59.562Z,2.00
2022-09-17T23:50:01.927Z,1.60
2022-09-17T23:52:04.193Z,1.90
2022-09-17T23:54:07.362Z,1.60
2022-09-17T23:56:15.579Z,1.77
2022-09-17T23:58:17.874Z,2.23
